sensor_id;sensor_type;location;lat;lon;timestamp;temperature;humidity
47090;DHT22;32840;52.516;13.294;2024-02-15T00:02:22;10.60;99.90
47090;DHT22;32840;52.516;13.294;2024-02-15T00:05:17;10.70;99.90
47090;DHT22;32840;52.516;13.294;2024-02-15T00:08:05;10.70;99.90
47090;DHT22;32840;52.516;13.294;2024-02-15T00:10:54;10.70;99.90
47090;DHT22;32840;52.516;13.294;2024-02-15T00:13:39;10.60;99.90
47090;DHT22;32840;52.516;13.294;2024-02-15T00:16:24;10.70;99.90
47090;DHT22;32840;52.516;13.294;2024-02-15T00:19:10;10.70;99.90
47090;DHT22;32840;52.516;13.294;2024-02-15T00:21:55;10.70;99.90
47090;DHT22;32840;52.516;13.294;2024-02-15T00:24:40;10.70;99.90
47090;DHT22;32840;52.516;13.294;2024-02-15T00:27:27;10.70;99.90
47090;DHT22;32840;52.516;13.294;2024-02-15T00:30:22;10.70;99.90
47090;DHT22;32840;52.516;13.294;2024-02-15T00:33:09;10.70;99.90
47090;DHT22;32840;52.516;13.294;2024-02-15T00:35:58;10.60;99.90
47090;DHT22;32840;52.516;13.294;2024-02-15T00:38:43;10.60;99.90
47090;DHT22;32840;52.516;13.294;2024-02-15T00:41:27;10.70;99.90
47090;DHT22;32840;52.516;13.294;2024-02-15T00:44:13;10.70;99.90
47090;DHT22;32840;52.516;13.294;2024-02-15T00:47:01;10.70;99.90
47090;DHT22;32840;52.516;13.294;2024-02-15T00:49:46;10.70;99.90
47090;DHT22;32840;52.516;13.294;2024-02-15T00:52:32;10.70;99.90
47090;DHT22;32840;52.516;13.294;2024-02-15T00:55:19;10.70;99.90
47090;DHT22;32840;52.516;13.294;2024-02-15T00:58:10;10.70;99.90
47090;DHT22;32840;52.516;13.294;2024-02-15T01:01:01;10.70;99.90
47090;DHT22;32840;52.516;13.294;2024-02-15T01:03:51;10.70;99.90
47090;DHT22;32840;52.516;13.294;2024-02-15T01:06:38;10.70;99.90
47090;DHT22;32840;52.516;13.294;2024-02-15T01:09:25;10.70;99.90
47090;DHT22;32840;52.516;13.294;2024-02-15T01:12:10;10.70;99.90
47090;DHT22;32840;52.516;13.294;2024-02-15T01:14:55;10.70;99.90
47090;DHT22;32840;52.516;13.294;2024-02-15T01:17:44;10.70;99.90
47090;DHT22;32840;52.516;13.294;2024-02-15T01:20:30;10.70;99.90
47090;DHT22;32840;52.516;13.294;2024-02-15T01:23:15;10.70;99.90
47090;DHT22;32840;52.516;13.294;2024-02-15T01:26:00;10.70;99.90
47090;DHT22;32840;52.516;13.294;2024-02-15T01:28:47;10.70;99.90
47090;DHT22;32840;52.516;13.294;2024-02-15T01:31:34;10.70;99.90
47090;DHT22;32840;52.516;13.294;2024-02-15T01:34:21;10.70;99.90
47090;DHT22;32840;52.516;13.294;2024-02-15T01:37:12;10.70;99.90
47090;DHT22;32840;52.516;13.294;2024-02-15T01:43:38;10.70;99.90
47090;DHT22;32840;52.516;13.294;2024-02-15T01:46:31;10.70;99.90
47090;DHT22;32840;52.516;13.294;2024-02-15T01:49:21;10.70;99.90
47090;DHT22;32840;52.516;13.294;2024-02-15T01:52:12;10.70;99.90
47090;DHT22;32840;52.516;13.294;2024-02-15T01:54:59;10.70;99.90
47090;DHT22;32840;52.516;13.294;2024-02-15T01:57:51;10.70;99.90
47090;DHT22;32840;52.516;13.294;2024-02-15T02:00:40;10.70;99.90
47090;DHT22;32840;52.516;13.294;2024-02-15T02:03:25;10.70;99.90
47090;DHT22;32840;52.516;13.294;2024-02-15T02:06:10;10.80;99.90
47090;DHT22;32840;52.516;13.294;2024-02-15T02:08:55;10.80;99.90
47090;DHT22;32840;52.516;13.294;2024-02-15T02:11:46;10.70;99.90
47090;DHT22;32840;52.516;13.294;2024-02-15T02:14:38;10.70;99.90
47090;DHT22;32840;52.516;13.294;2024-02-15T02:17:28;10.70;99.90
47090;DHT22;32840;52.516;13.294;2024-02-15T02:20:14;10.70;99.90
47090;DHT22;32840;52.516;13.294;2024-02-15T02:23:11;10.80;99.90
47090;DHT22;32840;52.516;13.294;2024-02-15T02:25:57;10.80;99.90
47090;DHT22;32840;52.516;13.294;2024-02-15T02:28:43;10.80;99.90
47090;DHT22;32840;52.516;13.294;2024-02-15T02:31:28;10.80;99.90
47090;DHT22;32840;52.516;13.294;2024-02-15T02:34:15;10.80;99.90
47090;DHT22;32840;52.516;13.294;2024-02-15T02:37:03;10.80;99.90
47090;DHT22;32840;52.516;13.294;2024-02-15T02:39:52;10.80;99.90
47090;DHT22;32840;52.516;13.294;2024-02-15T02:42:53;10.80;99.90
47090;DHT22;32840;52.516;13.294;2024-02-15T02:46:22;10.80;99.90
47090;DHT22;32840;52.516;13.294;2024-02-15T02:49:09;10.80;99.90
47090;DHT22;32840;52.516;13.294;2024-02-15T02:51:54;10.80;99.90
47090;DHT22;32840;52.516;13.294;2024-02-15T02:54:40;10.80;99.90
47090;DHT22;32840;52.516;13.294;2024-02-15T02:57:26;10.80;99.90
47090;DHT22;32840;52.516;13.294;2024-02-15T03:00:13;10.80;99.90
47090;DHT22;32840;52.516;13.294;2024-02-15T03:03:00;10.80;99.90
47090;DHT22;32840;52.516;13.294;2024-02-15T03:05:47;10.80;99.90
47090;DHT22;32840;52.516;13.294;2024-02-15T03:08:33;10.80;99.90
47090;DHT22;32840;52.516;13.294;2024-02-15T03:11:20;10.80;99.90
47090;DHT22;32840;52.516;13.294;2024-02-15T03:14:09;10.80;99.90
47090;DHT22;32840;52.516;13.294;2024-02-15T03:16:58;10.80;99.90
47090;DHT22;32840;52.516;13.294;2024-02-15T03:19:44;10.80;99.90
47090;DHT22;32840;52.516;13.294;2024-02-15T03:22:33;10.80;99.90
47090;DHT22;32840;52.516;13.294;2024-02-15T03:25:23;10.80;99.90
47090;DHT22;32840;52.516;13.294;2024-02-15T03:28:29;10.90;99.90
47090;DHT22;32840;52.516;13.294;2024-02-15T03:31:14;10.90;99.90
47090;DHT22;32840;52.516;13.294;2024-02-15T03:33:59;10.90;99.90
47090;DHT22;32840;52.516;13.294;2024-02-15T03:36:45;10.90;99.90
47090;DHT22;32840;52.516;13.294;2024-02-15T03:39:31;10.90;99.90
47090;DHT22;32840;52.516;13.294;2024-02-15T03:42:23;10.90;99.90
47090;DHT22;32840;52.516;13.294;2024-02-15T03:45:09;10.90;99.90
47090;DHT22;32840;52.516;13.294;2024-02-15T03:47:57;10.80;99.90
47090;DHT22;32840;52.516;13.294;2024-02-15T03:50:45;10.80;99.90
47090;DHT22;32840;52.516;13.294;2024-02-15T03:53:31;10.80;99.90
47090;DHT22;32840;52.516;13.294;2024-02-15T03:56:21;10.80;99.90
47090;DHT22;32840;52.516;13.294;2024-02-15T03:59:07;10.90;99.90
47090;DHT22;32840;52.516;13.294;2024-02-15T04:02:12;10.80;99.90
47090;DHT22;32840;52.516;13.294;2024-02-15T04:05:01;10.90;99.90
47090;DHT22;32840;52.516;13.294;2024-02-15T04:07:53;10.90;99.90
47090;DHT22;32840;52.516;13.294;2024-02-15T04:10:38;10.90;99.90
47090;DHT22;32840;52.516;13.294;2024-02-15T04:13:25;10.80;99.90
47090;DHT22;32840;52.516;13.294;2024-02-15T04:16:10;10.80;99.90
47090;DHT22;32840;52.516;13.294;2024-02-15T04:18:59;10.80;99.90
47090;DHT22;32840;52.516;13.294;2024-02-15T04:21:45;10.80;99.90
47090;DHT22;32840;52.516;13.294;2024-02-15T04:24:30;10.80;99.90
47090;DHT22;32840;52.516;13.294;2024-02-15T04:27:16;10.90;99.90
47090;DHT22;32840;52.516;13.294;2024-02-15T04:30:05;10.90;99.90
47090;DHT22;32840;52.516;13.294;2024-02-15T04:32:54;10.90;99.90
47090;DHT22;32840;52.516;13.294;2024-02-15T04:35:41;10.90;99.90
47090;DHT22;32840;52.516;13.294;2024-02-15T04:38:27;10.90;99.90
47090;DHT22;32840;52.516;13.294;2024-02-15T04:41:16;10.90;99.90
47090;DHT22;32840;52.516;13.294;2024-02-15T04:44:06;10.90;99.90
47090;DHT22;32840;52.516;13.294;2024-02-15T04:46:55;10.90;99.90
47090;DHT22;32840;52.516;13.294;2024-02-15T04:49:40;10.90;99.90
47090;DHT22;32840;52.516;13.294;2024-02-15T04:52:26;10.90;99.90
47090;DHT22;32840;52.516;13.294;2024-02-15T04:55:12;10.90;99.90
47090;DHT22;32840;52.516;13.294;2024-02-15T04:58:08;10.90;99.90
47090;DHT22;32840;52.516;13.294;2024-02-15T05:00:57;11.00;99.90
47090;DHT22;32840;52.516;13.294;2024-02-15T05:03:49;11.00;99.90
47090;DHT22;32840;52.516;13.294;2024-02-15T05:06:34;11.00;99.90
47090;DHT22;32840;52.516;13.294;2024-02-15T05:09:24;11.00;99.90
47090;DHT22;32840;52.516;13.294;2024-02-15T05:12:09;11.00;99.90
47090;DHT22;32840;52.516;13.294;2024-02-15T05:14:54;10.90;99.90
47090;DHT22;32840;52.516;13.294;2024-02-15T05:17:40;11.00;99.90
47090;DHT22;32840;52.516;13.294;2024-02-15T05:20:28;11.00;99.90
47090;DHT22;32840;52.516;13.294;2024-02-15T05:23:15;11.00;99.90
47090;DHT22;32840;52.516;13.294;2024-02-15T05:26:03;11.10;99.90
47090;DHT22;32840;52.516;13.294;2024-02-15T05:28:55;11.00;99.90
47090;DHT22;32840;52.516;13.294;2024-02-15T05:31:41;11.00;99.90
47090;DHT22;32840;52.516;13.294;2024-02-15T05:34:28;11.00;99.90
47090;DHT22;32840;52.516;13.294;2024-02-15T05:37:16;11.00;99.90
47090;DHT22;32840;52.516;13.294;2024-02-15T05:40:05;11.00;99.90
47090;DHT22;32840;52.516;13.294;2024-02-15T05:42:56;11.10;99.90
47090;DHT22;32840;52.516;13.294;2024-02-15T05:45:42;11.00;99.90
47090;DHT22;32840;52.516;13.294;2024-02-15T05:48:30;11.10;99.90
47090;DHT22;32840;52.516;13.294;2024-02-15T05:51:16;11.10;99.90
47090;DHT22;32840;52.516;13.294;2024-02-15T05:54:00;11.10;99.90
47090;DHT22;32840;52.516;13.294;2024-02-15T05:56:51;11.10;99.90
47090;DHT22;32840;52.516;13.294;2024-02-15T05:59:43;11.10;99.90
47090;DHT22;32840;52.516;13.294;2024-02-15T06:02:30;11.10;99.90
47090;DHT22;32840;52.516;13.294;2024-02-15T06:05:22;11.10;99.90
47090;DHT22;32840;52.516;13.294;2024-02-15T06:08:09;11.10;99.90
47090;DHT22;32840;52.516;13.294;2024-02-15T06:11:00;11.10;99.90
47090;DHT22;32840;52.516;13.294;2024-02-15T06:13:48;11.10;99.90
47090;DHT22;32840;52.516;13.294;2024-02-15T06:16:33;11.10;99.90
47090;DHT22;32840;52.516;13.294;2024-02-15T06:19:19;11.10;99.90
47090;DHT22;32840;52.516;13.294;2024-02-15T06:22:09;11.10;99.90
47090;DHT22;32840;52.516;13.294;2024-02-15T06:24:57;11.20;99.90
47090;DHT22;32840;52.516;13.294;2024-02-15T06:27:43;11.20;99.90
47090;DHT22;32840;52.516;13.294;2024-02-15T06:30:39;11.20;99.90
47090;DHT22;32840;52.516;13.294;2024-02-15T06:34:02;11.20;99.90
47090;DHT22;32840;52.516;13.294;2024-02-15T06:37:07;11.20;99.90
47090;DHT22;32840;52.516;13.294;2024-02-15T06:40:10;11.20;99.90
47090;DHT22;32840;52.516;13.294;2024-02-15T06:42:58;11.20;99.90
47090;DHT22;32840;52.516;13.294;2024-02-15T06:45:44;11.20;99.90
47090;DHT22;32840;52.516;13.294;2024-02-15T06:48:31;11.20;99.90
47090;DHT22;32840;52.516;13.294;2024-02-15T06:51:18;11.20;99.90
47090;DHT22;32840;52.516;13.294;2024-02-15T06:54:03;11.30;99.90
47090;DHT22;32840;52.516;13.294;2024-02-15T06:56:48;11.30;99.90
47090;DHT22;32840;52.516;13.294;2024-02-15T06:59:34;11.30;99.90
47090;DHT22;32840;52.516;13.294;2024-02-15T07:02:19;11.40;99.90
47090;DHT22;32840;52.516;13.294;2024-02-15T07:05:05;11.40;99.90
47090;DHT22;32840;52.516;13.294;2024-02-15T07:07:50;11.40;99.90
47090;DHT22;32840;52.516;13.294;2024-02-15T07:10:37;11.40;99.90
47090;DHT22;32840;52.516;13.294;2024-02-15T07:13:23;11.40;99.90
47090;DHT22;32840;52.516;13.294;2024-02-15T07:16:08;11.40;99.90
47090;DHT22;32840;52.516;13.294;2024-02-15T07:18:53;11.40;99.90
47090;DHT22;32840;52.516;13.294;2024-02-15T07:21:40;11.50;99.90
47090;DHT22;32840;52.516;13.294;2024-02-15T07:24:25;11.50;99.90
47090;DHT22;32840;52.516;13.294;2024-02-15T07:27:11;11.50;99.90
47090;DHT22;32840;52.516;13.294;2024-02-15T07:30:01;11.50;99.90
47090;DHT22;32840;52.516;13.294;2024-02-15T07:32:49;11.60;99.90
47090;DHT22;32840;52.516;13.294;2024-02-15T07:35:34;11.50;99.90
47090;DHT22;32840;52.516;13.294;2024-02-15T07:38:19;11.60;99.90
47090;DHT22;32840;52.516;13.294;2024-02-15T07:41:10;11.60;99.90
47090;DHT22;32840;52.516;13.294;2024-02-15T07:43:55;11.60;99.90
47090;DHT22;32840;52.516;13.294;2024-02-15T07:46:41;11.60;99.90
47090;DHT22;32840;52.516;13.294;2024-02-15T07:49:26;11.60;99.90
47090;DHT22;32840;52.516;13.294;2024-02-15T07:52:11;11.70;99.90
47090;DHT22;32840;52.516;13.294;2024-02-15T07:54:56;11.70;99.90
47090;DHT22;32840;52.516;13.294;2024-02-15T07:57:41;11.80;99.90
47090;DHT22;32840;52.516;13.294;2024-02-15T08:00:26;11.80;99.90
47090;DHT22;32840;52.516;13.294;2024-02-15T08:03:12;11.90;99.90
47090;DHT22;32840;52.516;13.294;2024-02-15T08:05:57;12.00;99.90
47090;DHT22;32840;52.516;13.294;2024-02-15T08:08:42;12.10;99.90
47090;DHT22;32840;52.516;13.294;2024-02-15T08:11:31;12.10;99.90
47090;DHT22;32840;52.516;13.294;2024-02-15T08:14:16;12.10;99.90
47090;DHT22;32840;52.516;13.294;2024-02-15T08:17:01;12.10;99.90
47090;DHT22;32840;52.516;13.294;2024-02-15T08:19:47;12.10;99.90
47090;DHT22;32840;52.516;13.294;2024-02-15T08:22:33;12.10;99.90
47090;DHT22;32840;52.516;13.294;2024-02-15T08:25:18;12.10;99.90
47090;DHT22;32840;52.516;13.294;2024-02-15T08:28:05;12.10;99.90
47090;DHT22;32840;52.516;13.294;2024-02-15T08:30:52;12.10;99.90
47090;DHT22;32840;52.516;13.294;2024-02-15T08:33:41;12.10;99.90
47090;DHT22;32840;52.516;13.294;2024-02-15T08:36:29;12.10;99.90
47090;DHT22;32840;52.516;13.294;2024-02-15T08:39:15;12.10;99.90
47090;DHT22;32840;52.516;13.294;2024-02-15T08:42:02;12.20;99.90
47090;DHT22;32840;52.516;13.294;2024-02-15T08:44:48;12.20;99.90
47090;DHT22;32840;52.516;13.294;2024-02-15T08:47:34;12.20;99.90
47090;DHT22;32840;52.516;13.294;2024-02-15T08:50:20;12.10;99.90
47090;DHT22;32840;52.516;13.294;2024-02-15T08:53:09;12.20;99.90
47090;DHT22;32840;52.516;13.294;2024-02-15T08:55:54;12.30;99.90
47090;DHT22;32840;52.516;13.294;2024-02-15T08:58:39;12.30;99.90
47090;DHT22;32840;52.516;13.294;2024-02-15T09:01:24;12.40;99.90
47090;DHT22;32840;52.516;13.294;2024-02-15T09:04:10;12.50;99.90
47090;DHT22;32840;52.516;13.294;2024-02-15T09:06:55;12.50;99.90
47090;DHT22;32840;52.516;13.294;2024-02-15T09:09:40;12.50;99.90
47090;DHT22;32840;52.516;13.294;2024-02-15T09:12:25;12.60;99.90
47090;DHT22;32840;52.516;13.294;2024-02-15T09:15:10;12.60;99.90
47090;DHT22;32840;52.516;13.294;2024-02-15T09:18:01;12.60;99.90
47090;DHT22;32840;52.516;13.294;2024-02-15T09:20:50;12.60;99.90
47090;DHT22;32840;52.516;13.294;2024-02-15T09:23:41;12.70;99.90
47090;DHT22;32840;52.516;13.294;2024-02-15T09:26:27;12.80;99.90
47090;DHT22;32840;52.516;13.294;2024-02-15T09:29:12;12.70;99.90
47090;DHT22;32840;52.516;13.294;2024-02-15T09:31:58;12.70;99.90
47090;DHT22;32840;52.516;13.294;2024-02-15T09:34:43;12.70;99.90
47090;DHT22;32840;52.516;13.294;2024-02-15T09:37:28;12.80;99.90
47090;DHT22;32840;52.516;13.294;2024-02-15T09:40:15;12.70;99.90
47090;DHT22;32840;52.516;13.294;2024-02-15T09:43:01;12.80;99.90
47090;DHT22;32840;52.516;13.294;2024-02-15T09:45:47;12.80;99.90
47090;DHT22;32840;52.516;13.294;2024-02-15T09:48:34;12.80;99.90
47090;DHT22;32840;52.516;13.294;2024-02-15T09:51:20;12.90;99.90
47090;DHT22;32840;52.516;13.294;2024-02-15T09:54:06;12.90;99.90
47090;DHT22;32840;52.516;13.294;2024-02-15T09:56:53;13.00;99.90
47090;DHT22;32840;52.516;13.294;2024-02-15T09:59:40;13.10;99.90
47090;DHT22;32840;52.516;13.294;2024-02-15T10:02:26;13.20;99.90
47090;DHT22;32840;52.516;13.294;2024-02-15T10:05:14;13.20;99.90
47090;DHT22;32840;52.516;13.294;2024-02-15T10:08:06;13.20;99.90
47090;DHT22;32840;52.516;13.294;2024-02-15T10:11:08;13.20;99.90
47090;DHT22;32840;52.516;13.294;2024-02-15T10:13:53;13.20;99.90
47090;DHT22;32840;52.516;13.294;2024-02-15T10:20:24;13.30;99.90
47090;DHT22;32840;52.516;13.294;2024-02-15T10:23:14;13.40;99.90
47090;DHT22;32840;52.516;13.294;2024-02-15T10:26:23;13.40;99.90
47090;DHT22;32840;52.516;13.294;2024-02-15T10:29:10;13.50;99.90
47090;DHT22;32840;52.516;13.294;2024-02-15T10:32:03;13.50;99.90
47090;DHT22;32840;52.516;13.294;2024-02-15T10:34:48;13.50;99.90
47090;DHT22;32840;52.516;13.294;2024-02-15T10:37:34;13.60;99.90
47090;DHT22;32840;52.516;13.294;2024-02-15T10:40:20;13.70;99.90
47090;DHT22;32840;52.516;13.294;2024-02-15T10:43:07;13.70;99.90
47090;DHT22;32840;52.516;13.294;2024-02-15T10:45:58;13.80;99.90
47090;DHT22;32840;52.516;13.294;2024-02-15T10:48:55;13.80;99.90
47090;DHT22;32840;52.516;13.294;2024-02-15T10:51:45;13.80;99.90
47090;DHT22;32840;52.516;13.294;2024-02-15T10:55:04;13.80;99.90
47090;DHT22;32840;52.516;13.294;2024-02-15T10:58:01;13.90;99.90
47090;DHT22;32840;52.516;13.294;2024-02-15T11:00:50;14.00;99.90
47090;DHT22;32840;52.516;13.294;2024-02-15T11:03:50;14.00;99.90
47090;DHT22;32840;52.516;13.294;2024-02-15T11:06:44;14.10;99.90
47090;DHT22;32840;52.516;13.294;2024-02-15T11:09:34;14.20;99.90
47090;DHT22;32840;52.516;13.294;2024-02-15T11:12:26;14.10;99.90
47090;DHT22;32840;52.516;13.294;2024-02-15T11:15:11;14.10;99.90
47090;DHT22;32840;52.516;13.294;2024-02-15T11:17:57;14.10;99.90
47090;DHT22;32840;52.516;13.294;2024-02-15T11:23:27;14.20;99.90
47090;DHT22;32840;52.516;13.294;2024-02-15T11:26:45;14.20;99.90
47090;DHT22;32840;52.516;13.294;2024-02-15T11:29:52;14.30;99.90
47090;DHT22;32840;52.516;13.294;2024-02-15T11:32:47;14.30;99.90
47090;DHT22;32840;52.516;13.294;2024-02-15T11:38:52;14.40;99.90
47090;DHT22;32840;52.516;13.294;2024-02-15T11:41:36;14.40;99.90
47090;DHT22;32840;52.516;13.294;2024-02-15T11:44:24;14.40;99.90
47090;DHT22;32840;52.516;13.294;2024-02-15T11:47:10;14.30;99.90
47090;DHT22;32840;52.516;13.294;2024-02-15T11:49:59;14.30;99.90
47090;DHT22;32840;52.516;13.294;2024-02-15T11:52:45;14.30;99.90
47090;DHT22;32840;52.516;13.294;2024-02-15T11:55:43;14.20;99.90
47090;DHT22;32840;52.516;13.294;2024-02-15T11:58:43;14.20;99.90
47090;DHT22;32840;52.516;13.294;2024-02-15T12:06:17;14.10;99.90
47090;DHT22;32840;52.516;13.294;2024-02-15T13:22:51;14.70;99.90
47090;DHT22;32840;52.516;13.294;2024-02-15T13:25:42;14.70;99.90
47090;DHT22;32840;52.516;13.294;2024-02-15T13:28:43;14.70;99.90
47090;DHT22;32840;52.516;13.294;2024-02-15T13:32:08;14.80;99.90
47090;DHT22;32840;52.516;13.294;2024-02-15T13:35:01;14.70;99.90
47090;DHT22;32840;52.516;13.294;2024-02-15T13:38:11;14.80;99.90
47090;DHT22;32840;52.516;13.294;2024-02-15T13:41:13;14.80;99.90
47090;DHT22;32840;52.516;13.294;2024-02-15T13:44:08;14.70;99.90
47090;DHT22;32840;52.516;13.294;2024-02-15T13:46:59;14.70;99.90
47090;DHT22;32840;52.516;13.294;2024-02-15T13:50:08;14.80;99.90
47090;DHT22;32840;52.516;13.294;2024-02-15T13:53:01;14.80;99.90
47090;DHT22;32840;52.516;13.294;2024-02-15T13:55:58;14.80;99.90
47090;DHT22;32840;52.516;13.294;2024-02-15T13:58:55;14.90;99.90
47090;DHT22;32840;52.516;13.294;2024-02-15T14:02:14;14.90;99.90
47090;DHT22;32840;52.516;13.294;2024-02-15T14:05:10;15.00;99.90
47090;DHT22;32840;52.516;13.294;2024-02-15T14:08:01;15.00;99.90
47090;DHT22;32840;52.516;13.294;2024-02-15T14:11:15;15.00;99.90
47090;DHT22;32840;52.516;13.294;2024-02-15T14:14:20;15.00;99.90
47090;DHT22;32840;52.516;13.294;2024-02-15T14:17:11;14.90;99.90
47090;DHT22;32840;52.516;13.294;2024-02-15T14:20:06;14.90;99.90
47090;DHT22;32840;52.516;13.294;2024-02-15T14:22:58;14.90;99.90
47090;DHT22;32840;52.516;13.294;2024-02-15T14:25:54;14.80;99.90
47090;DHT22;32840;52.516;13.294;2024-02-15T14:28:50;14.80;99.90
47090;DHT22;32840;52.516;13.294;2024-02-15T14:31:38;14.70;99.90
47090;DHT22;32840;52.516;13.294;2024-02-15T14:34:59;14.70;99.90
47090;DHT22;32840;52.516;13.294;2024-02-15T14:38:35;14.70;99.90
47090;DHT22;32840;52.516;13.294;2024-02-15T14:41:41;14.70;99.90
47090;DHT22;32840;52.516;13.294;2024-02-15T14:44:41;14.70;99.90
47090;DHT22;32840;52.516;13.294;2024-02-15T14:47:43;14.70;99.90
47090;DHT22;32840;52.516;13.294;2024-02-15T14:50:39;14.70;99.90
47090;DHT22;32840;52.516;13.294;2024-02-15T14:53:36;14.70;99.90
47090;DHT22;32840;52.516;13.294;2024-02-15T14:56:39;14.70;99.90
47090;DHT22;32840;52.516;13.294;2024-02-15T14:59:51;14.60;99.90
47090;DHT22;32840;52.516;13.294;2024-02-15T15:02:47;14.60;99.90
47090;DHT22;32840;52.516;13.294;2024-02-15T15:05:37;14.60;99.90
47090;DHT22;32840;52.516;13.294;2024-02-15T15:08:57;14.50;99.90
47090;DHT22;32840;52.516;13.294;2024-02-15T15:12:01;14.50;99.90
47090;DHT22;32840;52.516;13.294;2024-02-15T15:15:08;14.50;99.90
47090;DHT22;32840;52.516;13.294;2024-02-15T15:17:57;14.50;99.90
47090;DHT22;32840;52.516;13.294;2024-02-15T15:21:01;14.50;99.90
47090;DHT22;32840;52.516;13.294;2024-02-15T15:23:54;14.50;99.90
47090;DHT22;32840;52.516;13.294;2024-02-15T15:26:41;14.40;99.90
47090;DHT22;32840;52.516;13.294;2024-02-15T15:30:01;14.40;99.90
47090;DHT22;32840;52.516;13.294;2024-02-15T15:36:32;14.40;99.90
47090;DHT22;32840;52.516;13.294;2024-02-15T15:43:22;14.40;99.90
47090;DHT22;32840;52.516;13.294;2024-02-15T15:46:39;14.40;99.90
47090;DHT22;32840;52.516;13.294;2024-02-15T15:50:08;14.40;99.90
47090;DHT22;32840;52.516;13.294;2024-02-15T16:05:18;14.20;99.90
47090;DHT22;32840;52.516;13.294;2024-02-15T16:08:18;14.20;99.90
47090;DHT22;32840;52.516;13.294;2024-02-15T16:11:43;14.20;99.90
47090;DHT22;32840;52.516;13.294;2024-02-15T16:14:42;14.10;99.90
47090;DHT22;32840;52.516;13.294;2024-02-15T16:17:46;14.10;99.90
47090;DHT22;32840;52.516;13.294;2024-02-15T16:20:43;14.10;99.90
47090;DHT22;32840;52.516;13.294;2024-02-15T16:24:12;14.10;99.90
47090;DHT22;32840;52.516;13.294;2024-02-15T16:27:04;14.10;99.90
47090;DHT22;32840;52.516;13.294;2024-02-15T16:30:20;14.10;99.90
47090;DHT22;32840;52.516;13.294;2024-02-15T16:33:34;14.00;99.90
47090;DHT22;32840;52.516;13.294;2024-02-15T16:36:38;14.00;99.90
47090;DHT22;32840;52.516;13.294;2024-02-15T16:39:25;14.10;99.90
47090;DHT22;32840;52.516;13.294;2024-02-15T16:42:49;14.10;99.90
47090;DHT22;32840;52.516;13.294;2024-02-15T16:49:52;14.00;99.90
47090;DHT22;32840;52.516;13.294;2024-02-15T16:53:08;14.00;99.90
47090;DHT22;32840;52.516;13.294;2024-02-15T17:11:46;14.00;99.90
47090;DHT22;32840;52.516;13.294;2024-02-15T17:31:37;14.20;99.90
47090;DHT22;32840;52.516;13.294;2024-02-15T17:39:50;14.10;99.90
47090;DHT22;32840;52.516;13.294;2024-02-15T18:14:55;14.00;99.90
47090;DHT22;32840;52.516;13.294;2024-02-15T18:17:42;14.10;99.90
47090;DHT22;32840;52.516;13.294;2024-02-15T18:20:29;14.10;99.90
47090;DHT22;32840;52.516;13.294;2024-02-15T18:23:22;14.00;99.90
47090;DHT22;32840;52.516;13.294;2024-02-15T18:26:07;14.10;99.90
47090;DHT22;32840;52.516;13.294;2024-02-15T18:28:55;14.00;99.90
47090;DHT22;32840;52.516;13.294;2024-02-15T18:31:41;14.00;99.90
47090;DHT22;32840;52.516;13.294;2024-02-15T18:34:31;14.00;99.90
47090;DHT22;32840;52.516;13.294;2024-02-15T18:37:23;14.10;99.90
47090;DHT22;32840;52.516;13.294;2024-02-15T18:40:24;14.00;99.90
47090;DHT22;32840;52.516;13.294;2024-02-15T19:40:17;13.90;99.90
47090;DHT22;32840;52.516;13.294;2024-02-15T19:43:59;13.90;99.90
47090;DHT22;32840;52.516;13.294;2024-02-15T19:46:49;13.80;99.90
47090;DHT22;32840;52.516;13.294;2024-02-15T19:54:34;13.80;99.90
47090;DHT22;32840;52.516;13.294;2024-02-15T20:05:18;13.80;99.90
47090;DHT22;32840;52.516;13.294;2024-02-15T20:08:47;13.70;99.90
47090;DHT22;32840;52.516;13.294;2024-02-15T20:11:59;13.70;99.90
47090;DHT22;32840;52.516;13.294;2024-02-15T20:15:34;13.70;99.90
47090;DHT22;32840;52.516;13.294;2024-02-15T20:18:50;13.80;99.90
47090;DHT22;32840;52.516;13.294;2024-02-15T20:26:42;13.70;99.90
47090;DHT22;32840;52.516;13.294;2024-02-15T20:29:50;13.70;99.90
47090;DHT22;32840;52.516;13.294;2024-02-15T20:32:44;13.70;99.90
47090;DHT22;32840;52.516;13.294;2024-02-15T20:35:31;13.70;99.90
47090;DHT22;32840;52.516;13.294;2024-02-15T20:38:33;13.70;99.90
47090;DHT22;32840;52.516;13.294;2024-02-15T20:41:18;13.80;99.90
47090;DHT22;32840;52.516;13.294;2024-02-15T20:44:09;13.80;99.90
47090;DHT22;32840;52.516;13.294;2024-02-15T20:46:54;13.80;99.90
47090;DHT22;32840;52.516;13.294;2024-02-15T20:49:40;13.70;99.90
47090;DHT22;32840;52.516;13.294;2024-02-15T20:56:34;13.80;99.90
47090;DHT22;32840;52.516;13.294;2024-02-15T20:59:27;13.80;99.90
47090;DHT22;32840;52.516;13.294;2024-02-15T21:02:12;13.80;99.90
47090;DHT22;32840;52.516;13.294;2024-02-15T21:09:30;13.80;99.90
47090;DHT22;32840;52.516;13.294;2024-02-15T21:12:16;13.80;99.90
47090;DHT22;32840;52.516;13.294;2024-02-15T21:15:03;13.80;99.90
47090;DHT22;32840;52.516;13.294;2024-02-15T21:17:55;13.80;99.90
47090;DHT22;32840;52.516;13.294;2024-02-15T21:20:45;13.80;99.90
47090;DHT22;32840;52.516;13.294;2024-02-15T21:23:30;13.80;99.90
47090;DHT22;32840;52.516;13.294;2024-02-15T21:26:18;13.80;99.90
47090;DHT22;32840;52.516;13.294;2024-02-15T21:29:39;13.80;99.90
47090;DHT22;32840;52.516;13.294;2024-02-15T21:32:25;13.70;99.90
47090;DHT22;32840;52.516;13.294;2024-02-15T21:35:16;13.70;99.90
47090;DHT22;32840;52.516;13.294;2024-02-15T21:38:03;13.70;99.90
47090;DHT22;32840;52.516;13.294;2024-02-15T21:40:48;13.70;99.90
47090;DHT22;32840;52.516;13.294;2024-02-15T21:43:38;13.70;99.90
47090;DHT22;32840;52.516;13.294;2024-02-15T21:46:35;13.70;99.90
47090;DHT22;32840;52.516;13.294;2024-02-15T21:49:36;13.70;99.90
47090;DHT22;32840;52.516;13.294;2024-02-15T21:52:31;13.70;99.90
47090;DHT22;32840;52.516;13.294;2024-02-15T21:55:30;13.60;99.90
47090;DHT22;32840;52.516;13.294;2024-02-15T21:58:18;13.60;99.90
47090;DHT22;32840;52.516;13.294;2024-02-15T22:01:43;13.60;99.90
47090;DHT22;32840;52.516;13.294;2024-02-15T22:04:40;13.60;99.90
47090;DHT22;32840;52.516;13.294;2024-02-15T22:07:29;13.60;99.90
47090;DHT22;32840;52.516;13.294;2024-02-15T22:10:17;13.50;99.90
47090;DHT22;32840;52.516;13.294;2024-02-15T22:13:09;13.50;99.90
47090;DHT22;32840;52.516;13.294;2024-02-15T22:15:58;13.40;99.90
47090;DHT22;32840;52.516;13.294;2024-02-15T22:18:52;13.30;99.90